Time;durP1;ratioP1;P1;durP2;ratioP2;P2;SDS_P1;SDS_P2;PMS_P1;PMS_P2;Temp;Humidity;BMP_temperature;BMP_pressure;BME280_temperature;BME280_humidity;BME280_pressure;Samples;Min_cycle;Max_cycle;Signal;HPM_P1;HPM_P2
2022/12/07 00:01:20;;;;;;;0.50;0.10;;;5.60;1.00;;;;;;6092214;23;20424;-79
2022/12/07 00:03:49;;;;;;;0.63;0.63;;;5.60;1.00;;;;;;6091191;23;20408;-79
2022/12/07 00:06:19;;;;;;;0.50;0.10;;;5.70;1.00;;;;;;6089684;23;20448;-78
2022/12/07 00:08:47;;;;;;;0.50;0.10;;;5.60;1.00;;;;;;6080590;23;20420;-78
2022/12/07 00:11:17;;;;;;;0.50;0.10;;;5.70;1.00;;;;;;6068916;23;20504;-78
2022/12/07 00:13:46;;;;;;;0.50;0.10;;;5.70;1.00;;;;;;6069219;23;20404;-79
2022/12/07 00:16:19;;;;;;;0.50;0.10;;;5.80;1.00;;;;;;6070243;23;20403;-78
2022/12/07 00:18:47;;;;;;;0.50;0.10;;;5.80;1.00;;;;;;6070544;23;20404;-78
2022/12/07 00:21:18;;;;;;;1.43;0.80;;;5.80;1.00;;;;;;6071828;23;20428;-78
2022/12/07 00:23:48;;;;;;;0.50;0.20;;;5.70;1.00;;;;;;6077201;23;20408;-78
2022/12/07 00:26:18;;;;;;;0.50;0.10;;;5.70;1.00;;;;;;6079640;23;20404;-78
2022/12/07 00:28:49;;;;;;;2.70;2.50;;;5.50;1.00;;;;;;6080119;23;20463;-77
2022/12/07 00:31:20;;;;;;;2.00;1.30;;;5.40;1.00;;;;;;6079685;23;20431;-78
2022/12/07 00:33:48;;;;;;;1.20;1.03;;;5.40;1.00;;;;;;6074960;23;20388;-78
2022/12/07 00:36:17;;;;;;;0.50;0.10;;;;;;;;;;6071795;23;20412;-77
2022/12/07 00:38:53;;;;;;;0.63;0.30;;;5.40;1.00;;;;;;6071496;23;20395;-78
2022/12/07 00:41:24;;;;;;;0.50;0.10;;;5.40;1.00;;;;;;6079959;23;20483;-80
2022/12/07 00:43:52;;;;;;;0.50;0.10;;;5.50;1.00;;;;;;6073508;23;20420;-78
2022/12/07 00:46:22;;;;;;;1.13;0.93;;;5.50;1.00;;;;;;6066781;23;20984;-78
2022/12/07 00:48:51;;;;;;;0.50;0.10;;;5.60;1.00;;;;;;6069926;23;20420;-78
2022/12/07 00:51:20;;;;;;;0.50;0.10;;;5.60;1.00;;;;;;6090908;23;20458;-78
2022/12/07 00:53:50;;;;;;;0.77;0.77;;;5.70;1.00;;;;;;6092297;23;20431;-78
2022/12/07 00:56:19;;;;;;;0.50;0.10;;;5.60;1.00;;;;;;6076103;23;20410;-78
2022/12/07 00:58:52;;;;;;;0.50;0.10;;;5.50;1.00;;;;;;6069622;23;20403;-77
2022/12/07 05:00:58;;;;;;;2.20;1.03;;;;;;;;;;5991342;23;20498;-79
2022/12/07 05:03:25;;;;;;;0.60;0.40;;;4.80;1.00;;;;;;6073340;23;20459;-77
2022/12/07 05:05:53;;;;;;;0.70;0.50;;;4.80;1.00;;;;;;6078762;23;20431;-76
2022/12/07 05:08:21;;;;;;;1.57;0.77;;;4.80;1.00;;;;;;6077338;23;20446;-79
2022/12/07 05:10:49;;;;;;;1.17;0.97;;;4.70;1.00;;;;;;6082057;23;20451;-79
2022/12/07 05:13:17;;;;;;;0.50;0.10;;;4.70;1.00;;;;;;6084145;23;20493;-78
2022/12/07 05:15:45;;;;;;;0.50;0.10;;;4.70;1.00;;;;;;6087577;23;20440;-78
2022/12/07 05:18:15;;;;;;;0.50;0.20;;;4.80;1.00;;;;;;6089251;23;20401;-80
2022/12/07 05:20:44;;;;;;;3.13;3.03;;;4.80;1.00;;;;;;6094593;23;20384;-80
2022/12/07 05:23:12;;;;;;;1.13;0.60;;;4.80;1.00;;;;;;6094216;23;20419;-79
2022/12/07 05:25:40;;;;;;;0.60;0.40;;;4.80;1.00;;;;;;6094224;23;20396;-81
2022/12/07 05:28:09;;;;;;;1.20;0.57;;;6.20;1.00;;;;;;6090615;23;20467;-81
2022/12/07 05:30:37;;;;;;;0.50;0.20;;;4.70;1.00;;;;;;6094448;23;20439;-81
2022/12/07 05:33:05;;;;;;;2.27;2.17;;;4.70;1.00;;;;;;6092457;23;20406;-80
2022/12/07 05:35:34;;;;;;;0.50;0.10;;;4.80;1.00;;;;;;6093415;23;20415;-82
2022/12/07 05:38:02;;;;;;;1.93;1.70;;;4.80;1.00;;;;;;6080691;23;20404;-81
2022/12/07 05:40:30;;;;;;;2.07;1.60;;;;;;;;;;6078920;23;20418;-81
2022/12/07 05:42:57;;;;;;;0.53;0.27;;;4.80;1.00;;;;;;6078941;23;20419;-81
2022/12/07 05:45:31;;;;;;;0.60;0.40;;;;;;;;;;6078772;23;20395;-81
2022/12/07 05:47:59;;;;;;;1.00;0.30;;;4.80;1.00;;;;;;6092874;23;20439;-81
2022/12/07 05:50:27;;;;;;;0.90;0.50;;;4.90;1.00;;;;;;6094289;23;20392;-81
2022/12/07 05:52:56;;;;;;;1.37;1.27;;;4.90;1.00;;;;;;6086955;23;20419;-80
2022/12/07 05:55:24;;;;;;;0.60;0.60;;;4.80;1.00;;;;;;6078623;23;20423;-79
2022/12/07 06:00:34;;;;;;;4.30;2.23;;;4.90;1.00;;;;;;6076746;23;20940;-80
2022/12/07 06:03:02;;;;;;;1.43;0.83;;;;;;;;;;6078349;23;20415;-79
2022/12/07 06:05:30;;;;;;;1.63;1.27;;;;;;;;;;6078592;23;20412;-80
2022/12/07 06:07:59;;;;;;;0.50;0.10;;;4.90;1.00;;;;;;6081865;23;20439;-81
2022/12/07 06:10:32;;;;;;;3.13;1.17;;;5.00;1.00;;;;;;6082646;23;20450;-81
2022/12/07 06:13:00;;;;;;;0.50;0.10;;;;;;;;;;6080889;23;20411;-79
2022/12/07 06:15:28;;;;;;;0.80;0.67;;;5.00;1.00;;;;;;6080155;23;20713;-80
2022/12/07 06:17:55;;;;;;;0.50;0.10;;;5.00;1.00;;;;;;6077979;23;20414;-80
2022/12/07 06:20:23;;;;;;;0.50;0.10;;;5.00;1.00;;;;;;6076813;23;20877;-80
2022/12/07 06:22:52;;;;;;;0.80;0.43;;;;;;;;;;6076612;23;20515;-80
2022/12/07 06:25:21;;;;;;;1.90;1.33;;;5.00;1.00;;;;;;6076799;23;20420;-79
2022/12/07 06:27:51;;;;;;;0.60;0.40;;;;;;;;;;6077107;23;20443;-81
2022/12/07 06:30:19;;;;;;;0.50;0.10;;;5.10;1.00;;;;;;6077088;23;20470;-80
2022/12/07 06:32:47;;;;;;;0.50;0.10;;;;;;;;;;6077154;23;20483;-81
2022/12/07 06:35:15;;;;;;;0.50;0.10;;;5.20;1.00;;;;;;6077447;23;20427;-80
2022/12/07 06:37:43;;;;;;;3.40;0.87;;;5.20;1.00;;;;;;6076694;23;20412;-81
2022/12/07 06:40:12;;;;;;;1.80;1.70;;;5.20;1.00;;;;;;6076275;23;20434;-82
2022/12/07 06:42:41;;;;;;;0.50;0.10;;;5.20;1.00;;;;;;6076078;23;20438;-81
2022/12/07 06:45:09;;;;;;;0.50;0.10;;;5.20;1.00;;;;;;6076572;23;20436;-81
2022/12/07 06:47:37;;;;;;;0.50;0.10;;;5.30;1.00;;;;;;6077347;23;20426;-79
2022/12/07 06:50:09;;;;;;;1.13;1.03;;;;;;;;;;6076363;23;20392;-82
2022/12/07 06:52:37;;;;;;;0.97;0.87;;;5.30;1.00;;;;;;6077087;23;20435;-80
2022/12/07 06:55:06;;;;;;;1.63;1.53;;;;;;;;;;6078759;23;20406;-78
2022/12/07 06:57:34;;;;;;;0.50;0.17;;;5.20;1.00;;;;;;6078314;23;20400;-81
2022/12/07 07:00:04;;;;;;;2.13;1.63;;;5.20;1.00;;;;;;6078182;23;20420;-81
2022/12/07 07:02:32;;;;;;;0.50;0.30;;;5.20;1.00;;;;;;6076543;23;20439;-80
2022/12/07 07:05:00;;;;;;;4.07;2.43;;;5.20;1.00;;;;;;6079517;23;20419;-81
2022/12/07 07:07:28;;;;;;;1.87;0.87;;;5.20;1.00;;;;;;6080529;23;20728;-80
2022/12/07 07:09:56;;;;;;;0.50;0.20;;;5.20;1.00;;;;;;6082271;23;20443;-80
2022/12/07 07:12:24;;;;;;;1.10;0.50;;;5.30;1.00;;;;;;6082378;23;20437;-79
2022/12/07 07:14:52;;;;;;;0.50;0.10;;;5.30;1.00;;;;;;6078900;23;20463;-81
2022/12/07 07:17:21;;;;;;;2.00;1.90;;;5.30;1.00;;;;;;6078334;23;20408;-81
2022/12/07 07:19:49;;;;;;;2.20;1.80;;;5.30;1.00;;;;;;6078451;23;20403;-80
2022/12/07 07:22:17;;;;;;;3.43;1.43;;;5.30;1.00;;;;;;6077384;23;20431;-79
2022/12/07 07:24:45;;;;;;;1.03;1.03;;;5.30;1.00;;;;;;6078090;23;20411;-79
2022/12/07 07:27:12;;;;;;;1.20;0.70;;;5.40;1.00;;;;;;6077769;23;20423;-79
2022/12/07 07:29:41;;;;;;;0.50;0.10;;;5.40;1.00;;;;;;6079713;23;20471;-81
2022/12/07 07:32:09;;;;;;;1.23;0.83;;;5.40;1.00;;;;;;6079780;23;20431;-80
2022/12/07 07:34:38;;;;;;;1.27;1.17;;;;;;;;;;6077692;23;20419;-79
2022/12/07 07:37:06;;;;;;;2.23;1.20;;;5.30;1.00;;;;;;6077002;23;20743;-79
2022/12/07 07:39:34;;;;;;;1.07;0.97;;;5.40;1.00;;;;;;6067447;23;20424;-76
2022/12/07 07:42:02;;;;;;;0.50;0.10;;;5.40;1.00;;;;;;6069919;23;20448;-78
2022/12/07 07:44:30;;;;;;;0.60;0.40;;;5.40;1.00;;;;;;6072287;23;20415;-78
2022/12/07 07:47:02;;;;;;;0.50;0.10;;;5.40;1.00;;;;;;6073340;23;20408;-76
2022/12/07 07:49:30;;;;;;;1.10;0.40;;;5.50;1.00;;;;;;6081874;23;20439;-76
2022/12/07 07:52:00;;;;;;;0.50;0.10;;;;;;;;;;6081394;23;20586;-76
2022/12/07 07:54:28;;;;;;;1.33;0.63;;;5.60;1.00;;;;;;6082621;23;20459;-77
2022/12/07 07:56:55;;;;;;;0.67;0.30;;;5.60;1.00;;;;;;6076308;23;20416;-77
2022/12/07 07:59:24;;;;;;;0.50;0.10;;;5.60;1.00;;;;;;6074008;23;20415;-78
2022/12/07 08:01:52;;;;;;;1.90;1.67;;;5.60;1.00;;;;;;6067012;23;20948;-76
2022/12/07 08:04:20;;;;;;;0.50;0.20;;;5.60;1.00;;;;;;6067446;23;20399;-78
2022/12/07 08:06:48;;;;;;;2.40;2.07;;;5.60;1.00;;;;;;6067472;23;20494;-77
2022/12/07 08:09:17;;;;;;;0.50;0.10;;;5.60;1.00;;;;;;6067265;23;20455;-78
2022/12/07 08:11:45;;;;;;;0.50;0.10;;;5.60;1.00;;;;;;6067736;23;20423;-77
2022/12/07 08:14:13;;;;;;;0.50;0.10;;;5.70;1.00;;;;;;6069543;23;20391;-78
2022/12/07 08:16:41;;;;;;;0.50;0.10;;;5.70;1.00;;;;;;6071173;23;20718;-78
2022/12/07 08:19:09;;;;;;;0.50;0.10;;;5.90;1.00;;;;;;6071333;23;20909;-78
2022/12/07 08:21:37;;;;;;;0.50;0.20;;;;;;;;;;6070934;23;20436;-78
2022/12/07 08:24:05;;;;;;;0.50;0.20;;;5.90;1.00;;;;;;6068789;23;20404;-76
2022/12/07 08:26:34;;;;;;;1.60;1.50;;;6.00;1.00;;;;;;6067432;23;20396;-78
2022/12/07 08:29:02;;;;;;;0.50;0.10;;;5.90;1.00;;;;;;6068074;23;20848;-77
2022/12/07 08:31:31;;;;;;;0.60;0.43;;;5.90;1.00;;;;;;6068219;23;20427;-78
2022/12/07 08:33:59;;;;;;;0.50;0.10;;;5.90;1.00;;;;;;6070151;23;20466;-77
2022/12/07 08:36:27;;;;;;;0.50;0.10;;;5.90;1.00;;;;;;6069869;23;20844;-77
2022/12/07 08:38:55;;;;;;;2.10;0.87;;;5.90;1.00;;;;;;6069084;23;20423;-78
2022/12/07 08:41:44;;;;;;;1.33;1.23;;;6.00;1.00;;;;;;6071219;23;20486;-77
2022/12/07 08:44:12;;;;;;;0.50;0.10;;;6.00;1.00;;;;;;6073344;23;20411;-79
2022/12/07 08:46:45;;;;;;;0.50;0.10;;;6.10;1.00;;;;;;6073112;23;20438;-77
2022/12/07 08:49:16;;;;;;;0.50;0.20;;;6.10;1.00;;;;;;6086450;23;20432;-78
2022/12/07 08:51:44;;;;;;;0.50;0.10;;;6.10;1.00;;;;;;6083741;23;20459;-78
2022/12/07 08:54:15;;;;;;;0.60;0.20;;;6.20;1.00;;;;;;6086251;23;20414;-78
2022/12/07 08:56:46;;;;;;;0.50;0.20;;;6.20;1.00;;;;;;6085639;23;20431;-78
2022/12/07 08:59:16;;;;;;;0.50;0.10;;;;;;;;;;6073235;23;20415;-78
2022/12/07 09:01:44;;;;;;;1.73;1.63;;;6.20;1.00;;;;;;6068346;23;20450;-77
2022/12/07 09:04:12;;;;;;;0.50;0.20;;;6.20;1.00;;;;;;6069422;23;20403;-77
2022/12/07 09:06:40;;;;;;;1.37;1.07;;;6.20;1.00;;;;;;6068734;23;20495;-77
2022/12/07 09:09:09;;;;;;;0.50;0.10;;;6.20;1.00;;;;;;6069782;23;20443;-77
2022/12/07 09:12:10;;;;;;;0.50;0.10;;;;;;;;;;6078817;23;20473;-80
2022/12/07 09:15:03;;;;;;;0.50;0.20;;;;;;;;;;6074368;23;20522;-80
2022/12/07 09:20:34;;;;;;;1.47;1.30;;;;;;;;;;6078541;23;20388;-79
2022/12/07 09:23:04;;;;;;;2.33;2.23;;;;;;;;;;6072600;23;20424;-77
2022/12/07 09:25:32;;;;;;;0.50;0.10;;;;;;;;;;6069811;23;20412;-78
2022/12/07 09:28:02;;;;;;;8.27;4.27;;;6.10;1.00;;;;;;6068291;23;20478;-77
2022/12/07 09:30:29;;;;;;;8.47;2.20;;;6.10;1.00;;;;;;6068760;23;20443;-77
2022/12/07 09:32:58;;;;;;;4.27;3.87;;;6.10;1.00;;;;;;6067682;23;20408;-78
2022/12/07 09:35:27;;;;;;;2.10;0.80;;;6.10;1.00;;;;;;6068535;23;20752;-79
2022/12/07 09:37:55;;;;;;;1.63;0.93;;;6.10;1.00;;;;;;6070425;23;20399;-77
2022/12/07 09:40:24;;;;;;;1.27;0.87;;;6.00;1.00;;;;;;6068499;23;20414;-77
2022/12/07 09:42:54;;;;;;;0.70;0.40;;;6.10;1.00;;;;;;6073199;23;20438;-78
2022/12/07 09:45:27;;;;;;;0.70;0.27;;;6.00;1.00;;;;;;6074572;23;20415;-78
2022/12/07 09:47:55;;;;;;;0.97;0.47;;;5.90;1.00;;;;;;6072896;23;20447;-78
2022/12/07 09:50:26;;;;;;;0.60;0.37;;;6.00;1.00;;;;;;6071164;23;20447;-78
2022/12/07 09:53:03;;;;;;;1.03;1.00;;;6.10;1.00;;;;;;6072190;23;20434;-78
2022/12/07 09:55:35;;;;;;;0.60;0.50;;;6.30;1.00;;;;;;6072871;23;20408;-79
2022/12/07 09:58:03;;;;;;;2.03;1.40;;;6.30;1.00;;;;;;6071481;23;20414;-79
2022/12/07 10:00:35;;;;;;;1.73;1.30;;;6.40;1.00;;;;;;6071642;23;20905;-79
2022/12/07 10:03:03;;;;;;;3.20;1.53;;;6.40;1.00;;;;;;6069729;23;20388;-79
2022/12/07 10:05:36;;;;;;;5.33;1.30;;;6.40;1.00;;;;;;6071819;23;20517;-80
2022/12/07 10:08:04;;;;;;;0.50;0.20;;;6.30;1.00;;;;;;6069645;23;20407;-80
2022/12/07 10:10:38;;;;;;;0.90;0.90;;;6.40;1.00;;;;;;6069498;23;20474;-80
2022/12/07 10:13:07;;;;;;;4.07;2.20;;;6.40;1.00;;;;;;6067844;23;20419;-81
2022/12/07 10:15:49;;;;;;;0.50;0.10;;;6.40;1.00;;;;;;6068195;23;20408;-80
2022/12/07 10:18:36;;;;;;;0.50;0.20;;;6.60;1.00;;;;;;6070466;23;20411;-78
2022/12/07 10:21:11;;;;;;;5.30;0.93;;;6.70;1.00;;;;;;6069847;23;20423;-79
2022/12/07 10:23:41;;;;;;;0.70;0.60;;;6.70;1.00;;;;;;6069104;23;20857;-80
2022/12/07 10:26:32;;;;;;;0.50;0.10;;;6.80;1.00;;;;;;6070834;23;20935;-78
2022/12/07 10:29:04;;;;;;;0.50;0.10;;;6.90;1.00;;;;;;6070410;23;20412;-79
2022/12/07 10:31:33;;;;;;;0.50;0.10;;;6.90;1.00;;;;;;6068141;23;20459;-78
2022/12/07 10:34:02;;;;;;;0.70;0.40;;;6.90;1.00;;;;;;6066688;23;20445;-78
2022/12/07 10:36:36;;;;;;;0.50;0.10;;;7.00;1.00;;;;;;6067455;23;20434;-77
2022/12/07 10:39:13;;;;;;;0.60;0.50;;;7.00;1.00;;;;;;6070101;23;20746;-78
2022/12/07 10:41:55;;;;;;;0.50;0.10;;;7.00;1.00;;;;;;6073495;23;20434;-77
2022/12/07 10:44:25;;;;;;;0.50;0.10;;;7.00;1.00;;;;;;6071990;23;20392;-78
2022/12/07 10:47:08;;;;;;;0.50;0.10;;;7.00;1.00;;;;;;6069396;23;20388;-80
2022/12/07 10:50:03;;;;;;;0.50;0.10;;;7.10;1.00;;;;;;6069709;23;20388;-79
2022/12/07 10:52:46;;;;;;;0.50;0.20;;;7.20;1.00;;;;;;6069124;23;20427;-78
2022/12/07 10:55:25;;;;;;;1.20;0.50;;;7.20;1.00;;;;;;6069213;23;20745;-78
2022/12/07 10:58:07;;;;;;;0.60;0.30;;;7.20;1.00;;;;;;6066407;23;20412;-69
2022/12/07 11:00:38;;;;;;;0.50;0.10;;;;;;;;;;6064823;23;20415;-78
2022/12/07 11:03:46;;;;;;;0.50;0.30;;;7.30;1.00;;;;;;6065414;23;20404;-79
2022/12/07 11:06:24;;;;;;;0.50;0.10;;;7.40;1.00;;;;;;6046382;23;20514;-78
2022/12/07 11:09:03;;;;;;;0.50;0.20;;;7.50;1.00;;;;;;6066897;23;20407;-79
2022/12/07 11:11:36;;;;;;;1.57;0.60;;;7.60;1.00;;;;;;6067111;23;20503;-77
2022/12/07 11:14:15;;;;;;;0.50;0.10;;;7.60;1.00;;;;;;6067184;23;20399;-78
2022/12/07 11:16:53;;;;;;;3.60;1.10;;;7.50;1.00;;;;;;6066191;23;20449;-77
2022/12/07 11:19:56;;;;;;;0.60;0.50;;;7.60;1.00;;;;;;6065769;23;20388;-81
2022/12/07 11:22:37;;;;;;;0.50;0.10;;;7.60;1.00;;;;;;6052051;23;20427;-78
2022/12/07 11:25:22;;;;;;;0.50;0.10;;;7.60;1.00;;;;;;6065670;23;20408;-78
2022/12/07 11:28:12;;;;;;;0.50;0.10;;;7.70;1.00;;;;;;6068150;23;20396;-78
2022/12/07 11:30:47;;;;;;;0.50;0.10;;;7.60;1.00;;;;;;6068361;23;20431;-77
2022/12/07 11:33:22;;;;;;;0.50;0.10;;;7.60;1.00;;;;;;6066457;23;20624;-78
2022/12/07 11:36:08;;;;;;;0.50;0.10;;;7.60;1.00;;;;;;6066439;23;20463;-80
2022/12/07 11:38:43;;;;;;;2.20;1.80;;;7.70;1.00;;;;;;6066898;23;20447;-77
2022/12/07 11:41:14;;;;;;;0.50;0.10;;;7.70;1.00;;;;;;6066847;23;20435;-80
2022/12/07 11:43:55;;;;;;;0.50;0.10;;;7.70;1.00;;;;;;6066790;23;20407;-80
2022/12/07 11:46:28;;;;;;;0.50;0.10;;;7.70;1.00;;;;;;6073928;23;20419;-78
2022/12/07 11:49:03;;;;;;;0.50;0.10;;;7.70;1.00;;;;;;6079729;23;20420;-78
2022/12/07 11:51:37;;;;;;;0.50;0.10;;;7.70;1.00;;;;;;6072223;23;20478;-79
2022/12/07 11:54:15;;;;;;;0.53;0.37;;;7.70;1.00;;;;;;6068265;23;20388;-78
2022/12/07 11:56:44;;;;;;;0.50;0.10;;;7.70;1.00;;;;;;6068077;23;20423;-78
2022/12/07 11:59:18;;;;;;;0.50;0.10;;;7.70;1.00;;;;;;6069129;23;20443;-78
2022/12/07 12:01:54;;;;;;;0.50;0.10;;;7.70;1.00;;;;;;6067001;23;20506;-81
2022/12/07 12:04:45;;;;;;;0.60;0.40;;;7.70;1.00;;;;;;6067866;23;20426;-78
2022/12/07 12:07:18;;;;;;;0.50;0.10;;;7.70;1.00;;;;;;6066994;23;20400;-78
2022/12/07 12:10:15;;;;;;;0.50;0.17;;;7.70;1.00;;;;;;6067616;23;20407;-79
2022/12/07 12:13:15;;;;;;;0.50;0.10;;;7.80;1.00;;;;;;6069283;23;20419;-79
2022/12/07 12:16:19;;;;;;;0.50;0.10;;;7.80;1.00;;;;;;6070526;23;20411;-78
2022/12/07 12:19:04;;;;;;;0.50;0.10;;;7.80;1.00;;;;;;6069972;23;20438;-78
2022/12/07 12:21:33;;;;;;;0.50;0.10;;;7.80;1.00;;;;;;6071839;23;20435;-78
2022/12/07 12:24:05;;;;;;;2.10;0.60;;;7.80;1.00;;;;;;6070601;23;20392;-79
2022/12/07 12:26:37;;;;;;;2.10;1.17;;;7.70;1.00;;;;;;6079905;23;20432;-78
2022/12/07 12:29:08;;;;;;;0.50;0.10;;;7.60;1.00;;;;;;6076960;23;20451;-80
2022/12/07 12:31:41;;;;;;;0.50;0.20;;;7.60;1.00;;;;;;6080748;23;20447;-80
2022/12/07 12:34:33;;;;;;;0.50;0.10;;;7.60;1.00;;;;;;6082850;23;20507;-79
2022/12/07 12:37:28;;;;;;;0.50;0.23;;;7.60;1.00;;;;;;6080803;23;20904;-80
2022/12/07 12:40:19;;;;;;;0.50;0.10;;;;;;;;;;6074849;23;20488;-82
2022/12/07 12:42:53;;;;;;;0.50;0.30;;;7.70;1.00;;;;;;6070610;23;20483;-79
2022/12/07 12:45:23;;;;;;;0.50;0.20;;;7.80;1.00;;;;;;6074958;23;20430;-79
2022/12/07 12:48:00;;;;;;;0.50;0.10;;;7.80;1.00;;;;;;6074299;23;20406;-79
2022/12/07 12:50:32;;;;;;;0.73;0.50;;;;;;;;;;6073126;23;20450;-77
2022/12/07 12:53:16;;;;;;;0.50;0.10;;;7.70;1.00;;;;;;6070918;23;20399;-78
2022/12/07 12:56:10;;;;;;;0.60;0.40;;;7.70;1.00;;;;;;6069734;23;20399;-78
2022/12/07 12:58:45;;;;;;;0.50;0.10;;;7.60;1.00;;;;;;6082193;23;20402;-83
2022/12/07 13:01:41;;;;;;;0.50;0.10;;;7.60;1.00;;;;;;6084970;23;20441;-80
2022/12/07 13:04:48;;;;;;;0.50;0.10;;;7.60;1.00;;;;;;6075539;23;20403;-80
2022/12/07 13:07:49;;;;;;;0.50;0.10;;;7.60;1.00;;;;;;6065962;23;20419;-80
2022/12/07 13:10:28;;;;;;;0.50;0.10;;;7.70;1.00;;;;;;6069071;23;20499;-80
2022/12/07 13:12:57;;;;;;;0.50;0.10;;;7.70;1.00;;;;;;6070587;23;20519;-81
2022/12/07 13:15:41;;;;;;;0.50;0.10;;;7.70;1.00;;;;;;6070239;23;20467;-80
2022/12/07 13:18:36;;;;;;;0.50;0.10;;;7.90;1.00;;;;;;6068778;23;20418;-79
2022/12/07 13:21:24;;;;;;;0.50;0.20;;;7.70;1.00;;;;;;6048026;23;20746;-78
2022/12/07 13:23:59;;;;;;;1.90;1.80;;;7.70;1.00;;;;;;6069670;23;20415;-78
2022/12/07 13:26:38;;;;;;;0.50;0.10;;;7.70;1.00;;;;;;6070101;23;20440;-79
2022/12/07 13:29:12;;;;;;;0.50;0.10;;;7.80;1.00;;;;;;6073776;23;20407;-78
2022/12/07 13:31:43;;;;;;;0.50;0.10;;;7.90;1.00;;;;;;6069444;23;20798;-80
2022/12/07 13:34:31;;;;;;;0.50;0.10;;;8.00;1.00;;;;;;6070045;23;20408;-82
2022/12/07 13:37:02;;;;;;;0.50;0.10;;;8.00;1.00;;;;;;6069746;23;20897;-81
2022/12/07 13:39:30;;;;;;;0.50;0.10;;;7.90;1.00;;;;;;6070629;23;20463;-79
2022/12/07 13:42:01;;;;;;;0.50;0.10;;;7.90;1.00;;;;;;6069127;23;20744;-80
2022/12/07 13:44:35;;;;;;;0.50;0.10;;;7.80;1.00;;;;;;6070471;23;20395;-77
2022/12/07 13:47:17;;;;;;;0.50;0.10;;;7.70;1.00;;;;;;6068822;23;20872;-78
2022/12/07 13:49:49;;;;;;;0.50;0.10;;;7.50;1.00;;;;;;6068306;23;20395;-77
2022/12/07 13:52:24;;;;;;;0.50;0.10;;;7.50;1.00;;;;;;6068046;23;20538;-79
2022/12/07 13:54:58;;;;;;;0.50;0.10;;;7.50;1.00;;;;;;6068305;23;20392;-78
2022/12/07 13:57:34;;;;;;;0.50;0.10;;;7.50;1.00;;;;;;6068694;23;20550;-78
2022/12/07 14:00:03;;;;;;;0.50;0.10;;;7.50;1.00;;;;;;6068276;23;20740;-78
2022/12/07 14:02:34;;;;;;;0.97;0.27;;;7.50;1.00;;;;;;6067009;23;20446;-77
2022/12/07 14:05:10;;;;;;;0.50;0.10;;;7.40;1.00;;;;;;6068573;23;20475;-78
2022/12/07 14:07:50;;;;;;;0.50;0.10;;;7.30;1.00;;;;;;6069519;23;20408;-79
2022/12/07 14:10:29;;;;;;;0.50;0.10;;;7.30;1.00;;;;;;6071232;23;20392;-78
2022/12/07 14:12:57;;;;;;;0.50;0.10;;;7.30;1.00;;;;;;6073798;23;20963;-79
2022/12/07 14:15:30;;;;;;;0.50;0.10;;;7.30;1.00;;;;;;6072502;23;20420;-79
2022/12/07 14:18:03;;;;;;;0.50;0.10;;;7.30;1.00;;;;;;6070116;23;20490;-79
2022/12/07 14:20:33;;;;;;;0.50;0.10;;;7.30;1.00;;;;;;6068509;23;20419;-77
2022/12/07 14:23:08;;;;;;;0.50;0.10;;;7.30;1.00;;;;;;6069336;23;20763;-79
2022/12/07 14:25:49;;;;;;;0.50;0.10;;;7.30;1.00;;;;;;6068871;23;20467;-78
2022/12/07 14:28:29;;;;;;;0.50;0.10;;;7.30;1.00;;;;;;6069371;23;20836;-79
2022/12/07 14:30:57;;;;;;;0.50;0.10;;;5.40;1.00;;;;;;6065981;23;20427;-78
2022/12/07 14:33:27;;;;;;;0.50;0.10;;;7.30;1.00;;;;;;6067749;23;20440;-78
2022/12/07 14:35:57;;;;;;;0.50;0.10;;;7.30;1.00;;;;;;6068409;23;20388;-77
2022/12/07 14:38:27;;;;;;;0.60;0.47;;;7.30;1.00;;;;;;6067571;23;20479;-78
2022/12/07 14:41:50;;;;;;;0.50;0.10;;;7.30;1.00;;;;;;6068206;23;20458;-78
2022/12/07 14:43:45;;;;;;;0.50;0.10;;;7.30;1.00;;;;;;6067967;23;20429;-78
2022/12/07 14:46:32;;;;;;;0.50;0.10;;;7.20;1.00;;;;;;6073094;23;20761;-79
2022/12/07 14:49:05;;;;;;;0.50;0.30;;;7.20;1.00;;;;;;6082371;23;20415;-78
2022/12/07 14:51:53;;;;;;;0.60;0.20;;;7.10;1.00;;;;;;6081281;23;20548;-79
2022/12/07 14:54:42;;;;;;;0.50;0.10;;;7.00;1.00;;;;;;6073289;23;20436;-79
2022/12/07 14:57:11;;;;;;;0.50;0.10;;;7.00;1.00;;;;;;6072558;23;20422;-79
2022/12/07 14:59:39;;;;;;;0.50;0.10;;;6.80;1.00;;;;;;6073234;23;20444;-78
2022/12/07 15:02:14;;;;;;;0.50;0.10;;;6.70;1.00;;;;;;6073814;23;20483;-78
2022/12/07 15:04:45;;;;;;;2.50;0.40;;;;;;;;;;6073296;23;20407;-79
2022/12/07 15:07:19;;;;;;;0.60;0.37;;;6.40;1.00;;;;;;6073638;23;20495;-79
2022/12/07 15:09:47;;;;;;;0.53;0.27;;;6.20;1.00;;;;;;6074417;23;20384;-78
2022/12/07 15:12:15;;;;;;;0.50;0.30;;;6.00;1.00;;;;;;6073401;23;20455;-79
2022/12/07 15:14:43;;;;;;;2.00;1.70;;;6.00;1.00;;;;;;6075207;23;20411;-79
2022/12/07 15:17:12;;;;;;;0.50;0.10;;;6.00;1.00;;;;;;6074334;23;20419;-79
2022/12/07 15:19:57;;;;;;;0.50;0.10;;;6.00;1.00;;;;;;6070541;23;20700;-78
2022/12/07 15:22:25;;;;;;;1.93;0.87;;;6.00;1.00;;;;;;6071394;23;20491;-75
2022/12/07 15:24:53;;;;;;;0.50;0.10;;;5.70;1.00;;;;;;6070154;23;20467;-75
2022/12/07 15:27:21;;;;;;;0.70;0.50;;;6.00;1.00;;;;;;6068365;23;20399;-78
2022/12/07 15:29:49;;;;;;;0.50;0.13;;;6.10;1.00;;;;;;6067236;23;20399;-75
2022/12/07 15:32:17;;;;;;;0.50;0.10;;;6.20;1.00;;;;;;6064500;23;20447;-75
2022/12/07 15:34:45;;;;;;;0.50;0.10;;;6.20;1.00;;;;;;6067620;23;20732;-77
2022/12/07 15:37:14;;;;;;;0.70;0.70;;;6.20;1.00;;;;;;6067557;23;20483;-76
2022/12/07 15:39:42;;;;;;;0.50;0.10;;;6.10;1.00;;;;;;6066687;23;20500;-77
2022/12/07 15:42:12;;;;;;;0.60;0.40;;;6.00;1.00;;;;;;6067549;23;20451;-77
2022/12/07 15:47:26;;;;;;;0.50;0.20;;;6.00;1.00;;;;;;6067594;23;20419;-76
2022/12/07 15:49:54;;;;;;;0.50;0.20;;;6.10;1.00;;;;;;6068980;23;20411;-77
2022/12/07 15:52:26;;;;;;;0.50;0.10;;;6.00;1.00;;;;;;6067650;23;20447;-77
2022/12/07 15:54:54;;;;;;;0.60;0.60;;;6.00;1.00;;;;;;6070366;23;20807;-75
2022/12/07 15:57:22;;;;;;;0.60;0.20;;;6.00;1.00;;;;;;6069977;23;20415;-76
2022/12/07 15:59:53;;;;;;;0.50;0.20;;;6.00;1.00;;;;;;6067883;23;20408;-74
2022/12/07 16:02:22;;;;;;;0.50;0.10;;;6.00;1.00;;;;;;6068947;23;20447;-76
2022/12/07 16:04:50;;;;;;;0.50;0.10;;;6.00;1.00;;;;;;6067496;23;20885;-74
2022/12/07 16:07:19;;;;;;;0.50;0.10;;;6.00;1.00;;;;;;6068177;23;20453;-74
2022/12/07 16:09:49;;;;;;;0.50;0.10;;;6.10;1.00;;;;;;6069143;23;20407;-75
2022/12/07 16:12:17;;;;;;;0.50;0.10;;;6.10;1.00;;;;;;6069313;23;20479;-76
2022/12/07 16:14:45;;;;;;;0.50;0.10;;;6.10;1.00;;;;;;6068644;23;20418;-75
2022/12/07 16:17:13;;;;;;;0.50;0.10;;;6.20;1.00;;;;;;6069807;23;20772;-75
2022/12/07 16:19:41;;;;;;;0.50;0.10;;;6.20;1.00;;;;;;6068263;23;20418;-76
2022/12/07 16:22:09;;;;;;;1.63;0.60;;;6.20;1.00;;;;;;6063418;23;20431;-75
2022/12/07 16:24:36;;;;;;;0.50;0.10;;;8.20;1.00;;;;;;6067986;23;20783;-76
2022/12/07 16:27:06;;;;;;;0.50;0.10;;;;;;;;;;6067463;23;20411;-76
2022/12/07 16:29:34;;;;;;;7.50;1.90;;;6.30;1.00;;;;;;6067163;23;20415;-76
2022/12/07 16:32:02;;;;;;;0.50;0.10;;;6.20;1.00;;;;;;6067494;23;20826;-75
2022/12/07 16:34:30;;;;;;;0.50;0.10;;;6.20;1.00;;;;;;6066259;23;20450;-75
2022/12/07 16:36:58;;;;;;;0.50;0.10;;;6.20;1.00;;;;;;6067497;23;20411;-74
2022/12/07 16:39:32;;;;;;;0.50;0.10;;;6.20;1.00;;;;;;6068633;23;20411;-76
2022/12/07 16:42:00;;;;;;;0.50;0.10;;;6.20;1.00;;;;;;6068548;23;20963;-76
2022/12/07 16:44:30;;;;;;;0.50;0.10;;;6.20;1.00;;;;;;6068921;23;20407;-76
2022/12/07 16:46:58;;;;;;;0.50;0.20;;;6.20;1.00;;;;;;6069979;23;20422;-74
2022/12/07 16:49:26;;;;;;;0.50;0.10;;;6.30;1.00;;;;;;6076929;23;20416;-75
2022/12/07 16:51:54;;;;;;;0.50;0.10;;;6.30;1.00;;;;;;6081274;23;20431;-75
2022/12/07 16:54:42;;;;;;;0.50;0.20;;;6.40;1.00;;;;;;6081448;23;20976;-75
2022/12/07 16:57:10;;;;;;;0.77;0.50;;;6.30;1.00;;;;;;6076652;23;20713;-76
2022/12/07 16:59:46;;;;;;;1.53;1.43;;;6.30;1.00;;;;;;6067606;23;20387;-76
2022/12/07 17:02:14;;;;;;;3.00;2.90;;;6.20;1.00;;;;;;6067749;23;20436;-76
2022/12/07 17:04:42;;;;;;;0.50;0.20;;;6.10;1.00;;;;;;6068539;23;20439;-75
2022/12/07 17:07:10;;;;;;;0.50;0.10;;;6.20;1.00;;;;;;6072636;23;20404;-75
2022/12/07 17:09:38;;;;;;;0.80;0.40;;;6.20;1.00;;;;;;6081336;23;20490;-76
2022/12/07 17:12:07;;;;;;;0.77;0.30;;;;;;;;;;6069261;23;20471;-80
2022/12/07 17:17:22;;;;;;;0.70;0.40;;;6.10;1.00;;;;;;6080855;23;20427;-80
2022/12/07 17:19:51;;;;;;;1.03;0.83;;;;;;;;;;6085292;23;20943;-80
2022/12/07 17:22:19;;;;;;;0.50;0.30;;;6.00;1.00;;;;;;6087721;23;20467;-78
2022/12/07 17:24:47;;;;;;;0.50;0.10;;;5.90;1.00;;;;;;6085072;23;20426;-79
2022/12/07 17:27:16;;;;;;;0.50;0.20;;;5.80;1.00;;;;;;6087505;23;20415;-80
2022/12/07 17:29:44;;;;;;;0.50;0.20;;;5.90;1.00;;;;;;6088649;23;20415;-78
2022/12/07 17:32:12;;;;;;;0.50;0.10;;;5.90;1.00;;;;;;6088399;23;20463;-78
2022/12/07 17:34:41;;;;;;;0.50;0.10;;;5.80;1.00;;;;;;6084224;23;20435;-78
2022/12/07 17:37:09;;;;;;;0.50;0.10;;;5.80;1.00;;;;;;6083437;23;20406;-78
2022/12/07 17:39:37;;;;;;;0.70;0.50;;;5.80;1.00;;;;;;6083647;23;20436;-79
2022/12/07 17:44:51;;;;;;;0.50;0.10;;;5.80;1.00;;;;;;6072994;23;20407;-78
2022/12/07 17:47:20;;;;;;;0.50;0.20;;;5.90;1.00;;;;;;6071857;23;20415;-80
2022/12/07 17:49:49;;;;;;;0.50;0.10;;;5.80;1.00;;;;;;6071905;23;20436;-79
2022/12/07 17:55:03;;;;;;;0.50;0.20;;;5.90;1.00;;;;;;6075242;23;20801;-78
2022/12/07 17:57:31;;;;;;;0.50;0.10;;;5.90;1.00;;;;;;6075067;23;20416;-77
2022/12/07 17:59:59;;;;;;;0.50;0.10;;;5.90;1.00;;;;;;6077059;23;20488;-78